createdAt,value
2017-08-17T00:00:26.774Z,15.3
2017-08-17T00:01:27.601Z,15.3
2017-08-17T00:02:28.337Z,15.3
2017-08-17T00:03:29.460Z,15.3
2017-08-17T00:04:30.187Z,15.3
2017-08-17T00:05:31.023Z,15.1
2017-08-17T00:06:31.830Z,15.1
2017-08-17T00:07:32.651Z,15.2
2017-08-17T00:08:33.475Z,15.2
2017-08-17T00:09:34.273Z,15.2
2017-08-17T00:10:35.046Z,15.1
2017-08-17T00:11:36.084Z,15.1
2017-08-17T00:12:36.907Z,15.1
2017-08-17T00:13:37.730Z,15.1
2017-08-17T00:14:38.471Z,15.1
2017-08-17T00:15:39.209Z,15.1
2017-08-17T00:16:39.950Z,15.2
2017-08-17T00:17:41.089Z,15.2
2017-08-17T00:18:41.889Z,15.1
2017-08-17T00:19:42.632Z,15.1
2017-08-17T00:20:43.449Z,15.1
2017-08-17T00:21:44.266Z,15.2
2017-08-17T00:22:45.251Z,15.2
2017-08-17T00:23:46.008Z,15.1
2017-08-17T00:24:46.749Z,15.2
2017-08-17T00:25:47.504Z,15.2
2017-08-17T00:26:48.307Z,15.3
2017-08-17T00:27:49.092Z,15.3
2017-08-17T00:28:49.823Z,15.3
2017-08-17T00:29:50.573Z,15.2
2017-08-17T00:30:51.354Z,15.3
2017-08-17T00:31:52.091Z,15.3
2017-08-17T00:32:53.176Z,15.3
2017-08-17T00:33:53.910Z,15.4
2017-08-17T00:34:54.657Z,15.4
2017-08-17T00:35:55.453Z,15.5
2017-08-17T00:36:56.177Z,15.5
2017-08-17T00:37:57.246Z,15.5
2017-08-17T00:38:58.061Z,15.5
2017-08-17T00:39:58.793Z,15.6
2017-08-17T00:40:59.541Z,15.6
2017-08-17T00:42:00.347Z,15.7
2017-08-17T00:43:01.485Z,15.6
2017-08-17T00:44:02.229Z,15.6
2017-08-17T00:45:03.029Z,15.6
2017-08-17T00:46:03.833Z,15.6
2017-08-17T00:47:04.643Z,15.6
2017-08-17T00:48:05.800Z,15.8
2017-08-17T00:49:06.613Z,15.8
2017-08-17T00:50:07.324Z,15.9
2017-08-17T00:51:08.052Z,15.8
2017-08-17T00:52:08.780Z,15.8
2017-08-17T00:53:09.963Z,15.9
2017-08-17T00:54:10.754Z,15.9
2017-08-17T00:55:11.492Z,15.9
2017-08-17T00:56:12.307Z,16.0
2017-08-17T00:57:13.048Z,16.0
2017-08-17T00:58:14.242Z,16.0
2017-08-17T00:59:14.982Z,16.0
2017-08-17T01:00:15.799Z,16.0
2017-08-17T01:01:16.598Z,16.0
2017-08-17T01:02:17.390Z,16.1
2017-08-17T01:03:18.472Z,16.1
2017-08-17T01:04:19.212Z,16.1
2017-08-17T01:05:20.022Z,16.1
2017-08-17T01:06:20.830Z,16.2
2017-08-17T01:07:21.618Z,16.2
2017-08-17T01:08:22.759Z,16.2
2017-08-17T01:09:23.510Z,16.2
2017-08-17T01:10:24.323Z,16.2
2017-08-17T01:11:25.120Z,16.3
2017-08-17T01:12:25.851Z,16.2
2017-08-17T01:13:27.127Z,16.2
2017-08-17T01:14:27.910Z,16.2
2017-08-17T01:15:28.671Z,16.2
2017-08-17T01:16:29.458Z,16.1
2017-08-17T01:17:30.182Z,16.1
2017-08-17T01:18:31.261Z,16.1
2017-08-17T01:19:32.070Z,16.0
2017-08-17T01:20:32.804Z,16.0
2017-08-17T01:21:33.619Z,16.0
2017-08-17T01:22:34.462Z,16.0
2017-08-17T01:23:35.258Z,16.0
2017-08-17T01:24:36.025Z,15.9
2017-08-17T01:25:36.763Z,15.8
2017-08-17T01:26:37.505Z,15.8
2017-08-17T01:27:38.719Z,15.8
2017-08-17T01:28:39.464Z,15.8
2017-08-17T01:29:40.199Z,15.7
2017-08-17T01:30:40.940Z,15.7
2017-08-17T01:31:41.679Z,15.6
2017-08-17T01:32:42.821Z,15.6
2017-08-17T01:33:43.559Z,15.6
2017-08-17T01:34:44.297Z,15.6
2017-08-17T01:35:45.040Z,15.5
2017-08-17T01:36:45.789Z,15.5
2017-08-17T01:37:46.840Z,15.4
2017-08-17T01:38:47.594Z,15.4
2017-08-17T01:39:48.336Z,15.4
2017-08-17T01:40:49.127Z,15.4
2017-08-17T01:41:49.935Z,15.4
2017-08-17T01:42:51.082Z,15.4
2017-08-17T01:43:51.809Z,15.3
2017-08-17T01:44:52.562Z,15.3
2017-08-17T01:45:53.340Z,15.3
2017-08-17T01:46:54.081Z,15.3
2017-08-17T01:47:55.196Z,15.3
2017-08-17T01:48:55.989Z,15.2
2017-08-17T01:49:56.725Z,15.2
2017-08-17T01:50:57.452Z,15.1
2017-08-17T01:51:58.185Z,15.1
2017-08-17T01:52:59.171Z,15.1
2017-08-17T01:53:59.990Z,15.1
2017-08-17T01:55:00.723Z,15.0
2017-08-17T01:56:01.524Z,15.1
2017-08-17T01:57:02.323Z,15.1
2017-08-17T01:58:03.421Z,15.1
2017-08-17T01:59:04.151Z,15.1
2017-08-17T02:00:04.964Z,15.1
2017-08-17T02:01:05.779Z,15.1
2017-08-17T02:02:06.511Z,15.0
2017-08-17T02:03:07.709Z,15.0
2017-08-17T02:04:08.453Z,14.9
2017-08-17T02:05:09.258Z,15.0
2017-08-17T02:06:10.015Z,15.0
2017-08-17T02:07:10.835Z,14.9
2017-08-17T02:08:11.870Z,15.0
2017-08-17T02:09:12.604Z,15.0
2017-08-17T02:10:13.339Z,15.0
2017-08-17T02:11:14.082Z,15.0
2017-08-17T02:12:14.819Z,15.0
2017-08-17T02:13:15.904Z,14.9
2017-08-17T02:14:16.597Z,15.0
2017-08-17T02:15:17.330Z,14.9
2017-08-17T02:16:18.069Z,15.0
2017-08-17T02:17:18.827Z,14.8
2017-08-17T02:18:19.570Z,14.8
2017-08-17T02:19:20.789Z,14.8
2017-08-17T02:20:21.537Z,14.9
2017-08-17T02:21:22.280Z,14.8
2017-08-17T02:22:23.015Z,14.8
2017-08-17T02:23:23.759Z,14.9
2017-08-17T02:24:24.579Z,14.8
2017-08-17T02:25:25.609Z,14.9
2017-08-17T02:26:26.349Z,14.7
2017-08-17T02:27:27.080Z,14.7
2017-08-17T02:28:27.901Z,14.7
2017-08-17T02:29:28.649Z,14.8
2017-08-17T02:30:29.635Z,14.8
2017-08-17T02:31:30.452Z,14.8
2017-08-17T02:32:31.269Z,14.8
2017-08-17T02:33:32.073Z,14.8
2017-08-17T02:34:32.809Z,14.8
2017-08-17T02:35:33.993Z,14.8
2017-08-17T02:36:34.781Z,14.8
2017-08-17T02:37:35.603Z,14.8
2017-08-17T02:38:36.390Z,14.7
2017-08-17T02:39:37.133Z,14.8
2017-08-17T02:40:37.868Z,14.8
2017-08-17T02:41:38.604Z,14.8
2017-08-17T02:42:39.340Z,14.8
2017-08-17T02:43:40.338Z,14.9
2017-08-17T02:44:41.148Z,14.8
2017-08-17T02:45:41.917Z,14.8
2017-08-17T02:46:42.663Z,14.8
2017-08-17T02:47:43.469Z,14.9
2017-08-17T02:48:44.199Z,14.9
2017-08-17T02:49:45.080Z,15.0
2017-08-17T02:50:45.819Z,14.9
2017-08-17T02:51:46.550Z,15.0
2017-08-17T02:52:47.292Z,15.0
2017-08-17T02:53:48.089Z,15.1
2017-08-17T02:54:49.179Z,15.2
2017-08-17T02:55:49.914Z,15.1
2017-08-17T02:56:50.649Z,15.1
2017-08-17T02:57:51.461Z,15.2
2017-08-17T02:58:52.198Z,15.1
2017-08-17T02:59:53.133Z,15.2
2017-08-17T03:00:53.881Z,15.2
2017-08-17T03:01:54.634Z,15.2
2017-08-17T03:02:55.372Z,15.2
2017-08-17T03:03:56.180Z,15.1
2017-08-17T03:04:57.220Z,15.2
2017-08-17T03:05:57.952Z,15.2
2017-08-17T03:06:58.764Z,15.3
2017-08-17T03:07:59.460Z,15.3
2017-08-17T03:09:00.269Z,15.2
2017-08-17T03:10:01.497Z,15.3
2017-08-17T03:11:02.315Z,15.3
2017-08-17T03:12:03.044Z,15.3
2017-08-17T03:13:03.781Z,15.3
2017-08-17T03:14:04.586Z,15.4
2017-08-17T03:15:05.725Z,15.5
2017-08-17T03:16:06.470Z,15.4
2017-08-17T03:17:07.232Z,15.4
2017-08-17T03:18:08.009Z,15.5
2017-08-17T03:19:08.824Z,15.4
2017-08-17T03:20:10.051Z,15.5
2017-08-17T03:21:10.804Z,15.6
2017-08-17T03:22:11.489Z,15.5
2017-08-17T03:23:12.243Z,15.5
2017-08-17T03:24:13.053Z,15.5
2017-08-17T03:25:14.172Z,15.5
2017-08-17T03:26:14.948Z,15.6
2017-08-17T03:27:15.689Z,15.6
2017-08-17T03:28:16.423Z,15.7
2017-08-17T03:29:17.148Z,15.6
2017-08-17T03:30:18.149Z,15.7
2017-08-17T03:31:18.885Z,15.7
2017-08-17T03:32:19.700Z,15.7
2017-08-17T03:33:20.440Z,15.8
2017-08-17T03:34:21.172Z,15.7
2017-08-17T03:35:22.194Z,15.8
2017-08-17T03:36:22.928Z,15.9
2017-08-17T03:37:23.732Z,15.9
2017-08-17T03:38:24.547Z,15.9
2017-08-17T03:39:26.496Z,15.9
2017-08-17T03:40:29.058Z,15.9
2017-08-17T03:41:31.259Z,15.9
2017-08-17T03:42:31.489Z,16.0
2017-08-17T03:43:32.224Z,16.1
2017-08-17T03:44:32.960Z,16.1
2017-08-17T03:45:33.953Z,16.1
2017-08-17T03:46:34.683Z,16.1
2017-08-17T03:47:35.509Z,16.1
2017-08-17T03:48:36.240Z,16.1
2017-08-17T03:49:36.989Z,16.2
2017-08-17T03:50:38.044Z,16.2
2017-08-17T03:51:38.885Z,16.2
2017-08-17T03:52:39.603Z,16.2
2017-08-17T03:53:40.427Z,16.2
2017-08-17T03:54:41.251Z,16.3
2017-08-17T03:55:42.400Z,16.3
2017-08-17T03:56:43.141Z,16.4
2017-08-17T03:57:43.883Z,16.3
2017-08-17T03:58:44.622Z,16.4
2017-08-17T03:59:45.421Z,16.3
2017-08-17T04:00:46.211Z,16.4
2017-08-17T04:01:46.961Z,16.4
2017-08-17T04:02:47.730Z,16.3
2017-08-17T04:03:48.480Z,16.3
2017-08-17T04:04:49.234Z,16.4
2017-08-17T04:05:50.430Z,16.4
2017-08-17T04:06:51.243Z,16.4
2017-08-17T04:07:52.000Z,16.4
2017-08-17T04:08:52.741Z,16.4
2017-08-17T04:09:53.563Z,16.4
2017-08-17T04:10:54.658Z,16.3
2017-08-17T04:11:55.401Z,16.4
2017-08-17T04:12:56.224Z,16.4
2017-08-17T04:13:56.970Z,16.3
2017-08-17T04:14:57.723Z,16.3
2017-08-17T04:15:58.821Z,16.3
2017-08-17T04:16:59.640Z,16.3
2017-08-17T04:18:00.439Z,16.4
2017-08-17T04:19:01.181Z,16.3
2017-08-17T04:20:01.989Z,16.3
2017-08-17T04:21:02.751Z,16.3
2017-08-17T04:22:03.769Z,16.3
2017-08-17T04:23:04.992Z,16.3
2017-08-17T04:24:06.831Z,16.2
2017-08-17T04:25:08.364Z,16.2
2017-08-17T04:26:09.463Z,16.2
2017-08-17T04:27:11.697Z,16.2
2017-08-17T04:28:14.221Z,16.2
2017-08-17T04:29:14.948Z,16.2
2017-08-17T04:30:15.774Z,16.2
2017-08-17T04:31:18.070Z,16.2
2017-08-17T04:32:18.741Z,16.2
2017-08-17T04:33:19.920Z,16.3
2017-08-17T04:34:20.661Z,16.2
2017-08-17T04:35:21.471Z,16.1
2017-08-17T04:36:22.306Z,16.3
2017-08-17T04:37:23.049Z,16.3
2017-08-17T04:38:23.999Z,16.3
2017-08-17T04:39:24.747Z,16.2
2017-08-17T04:40:25.540Z,16.3
2017-08-17T04:41:26.260Z,16.4
2017-08-17T04:42:27.027Z,16.3
2017-08-17T04:43:28.091Z,16.3
2017-08-17T04:44:28.835Z,16.4
2017-08-17T04:45:29.579Z,16.4
2017-08-17T04:46:30.364Z,16.4
2017-08-17T04:47:31.105Z,16.4
2017-08-17T04:48:32.103Z,16.4
2017-08-17T04:49:32.921Z,16.5
2017-08-17T04:50:33.662Z,16.4
2017-08-17T04:51:34.512Z,16.5
2017-08-17T04:52:35.321Z,16.5
2017-08-17T04:53:36.321Z,16.5
2017-08-17T04:54:37.128Z,16.5
2017-08-17T04:55:37.884Z,16.5
2017-08-17T04:56:38.737Z,16.4
2017-08-17T04:57:39.528Z,16.6
2017-08-17T04:58:40.570Z,16.4
2017-08-17T04:59:41.310Z,16.5
2017-08-17T05:00:42.051Z,16.5
2017-08-17T05:01:42.873Z,16.4
2017-08-17T05:02:43.610Z,16.6
2017-08-17T05:03:44.759Z,16.6
2017-08-17T05:04:45.577Z,16.5
2017-08-17T05:05:46.349Z,16.6
2017-08-17T05:06:47.103Z,16.5
2017-08-17T05:07:47.844Z,16.6
2017-08-17T05:08:48.970Z,16.6
2017-08-17T05:09:49.717Z,16.6
2017-08-17T05:10:50.479Z,16.6
2017-08-17T05:11:51.236Z,16.6
2017-08-17T05:12:52.000Z,16.7
2017-08-17T05:13:53.053Z,16.7
2017-08-17T05:14:53.798Z,16.7
2017-08-17T05:15:54.554Z,16.7
2017-08-17T05:16:55.284Z,16.7
2017-08-17T05:17:56.090Z,16.7
2017-08-17T05:18:57.233Z,16.8
2017-08-17T05:19:58.049Z,16.7
2017-08-17T05:20:58.792Z,16.9
2017-08-17T05:21:59.610Z,16.7
2017-08-17T05:23:00.422Z,16.8
2017-08-17T05:24:01.169Z,16.9
2017-08-17T05:25:02.311Z,17.0
2017-08-17T05:26:03.127Z,17.1
2017-08-17T05:27:03.972Z,17.3
2017-08-17T05:28:04.775Z,17.3
2017-08-17T05:29:05.558Z,17.6
2017-08-17T05:30:06.302Z,17.8
2017-08-17T05:31:07.414Z,17.9
2017-08-17T05:32:08.163Z,18.3
2017-08-17T05:33:08.952Z,18.5
2017-08-17T05:34:09.683Z,18.6
2017-08-17T05:35:10.428Z,18.8
2017-08-17T05:36:11.373Z,19.0
2017-08-17T05:37:12.126Z,19.1
2017-08-17T05:38:12.920Z,19.1
2017-08-17T05:39:13.659Z,19.3
2017-08-17T05:40:14.484Z,19.3
2017-08-17T05:41:15.532Z,19.5
2017-08-17T05:42:16.325Z,19.6
2017-08-17T05:43:17.068Z,19.6
2017-08-17T05:44:17.809Z,19.8
2017-08-17T05:45:18.550Z,19.9
2017-08-17T05:46:19.590Z,20.0
2017-08-17T05:47:20.400Z,20.1
2017-08-17T05:48:21.127Z,20.3
2017-08-17T05:49:21.871Z,20.4
2017-08-17T05:50:22.689Z,20.4
2017-08-17T05:51:23.551Z,20.5
2017-08-17T05:52:24.334Z,20.5
2017-08-17T05:53:25.139Z,20.4
2017-08-17T05:54:25.882Z,20.5
2017-08-17T05:55:26.832Z,20.6
2017-08-17T05:56:27.630Z,20.6
2017-08-17T05:57:28.374Z,20.5
2017-08-17T05:58:29.180Z,20.5
2017-08-17T05:59:29.926Z,20.4
2017-08-17T06:00:31.049Z,20.3
2017-08-17T06:01:31.794Z,20.3
2017-08-17T06:02:32.544Z,20.4
2017-08-17T06:03:33.298Z,20.4
2017-08-17T06:04:34.118Z,20.5
2017-08-17T06:05:35.074Z,20.7
2017-08-17T06:06:35.865Z,20.8
2017-08-17T06:07:36.606Z,20.9
2017-08-17T06:08:37.450Z,20.8
2017-08-17T06:09:38.195Z,20.9
2017-08-17T06:10:39.209Z,20.8
2017-08-17T06:11:40.041Z,20.8
2017-08-17T06:12:40.782Z,20.8
2017-08-17T06:13:41.529Z,20.8
2017-08-17T06:14:42.268Z,20.8
2017-08-17T06:15:43.366Z,20.9
2017-08-17T06:16:44.093Z,20.9
2017-08-17T06:17:44.821Z,21.0
2017-08-17T06:18:45.560Z,21.1
2017-08-17T06:19:46.309Z,21.2
2017-08-17T06:20:47.510Z,21.1
2017-08-17T06:21:48.263Z,21.1
2017-08-17T06:22:49.017Z,21.2
2017-08-17T06:23:49.834Z,21.2
2017-08-17T06:24:50.651Z,21.3
2017-08-17T06:25:51.806Z,21.5
2017-08-17T06:26:52.542Z,21.5
2017-08-17T06:27:53.375Z,21.5
2017-08-17T06:28:54.171Z,21.3
2017-08-17T06:29:54.934Z,21.3
2017-08-17T06:30:56.108Z,21.3
2017-08-17T06:31:56.852Z,21.3
2017-08-17T06:32:57.592Z,21.5
2017-08-17T06:33:58.369Z,21.6
2017-08-17T06:34:59.187Z,21.5
2017-08-17T06:36:00.239Z,21.5
2017-08-17T06:37:01.047Z,21.4
2017-08-17T06:38:01.791Z,21.3
2017-08-17T06:39:02.630Z,21.4
2017-08-17T06:40:03.381Z,21.5
2017-08-17T06:41:04.420Z,21.5
2017-08-17T06:42:05.151Z,21.5
2017-08-17T06:43:05.985Z,21.5
2017-08-17T06:44:06.719Z,21.6
2017-08-17T06:45:07.461Z,21.6
2017-08-17T06:46:08.609Z,21.6
2017-08-17T06:47:09.362Z,21.6
2017-08-17T06:48:10.152Z,21.6
2017-08-17T06:49:10.966Z,21.6
2017-08-17T06:50:11.762Z,21.6
2017-08-17T06:51:12.809Z,21.6
2017-08-17T06:52:13.610Z,21.6
2017-08-17T06:53:14.349Z,21.6
2017-08-17T06:54:15.094Z,21.7
2017-08-17T06:55:15.852Z,21.7
2017-08-17T06:56:16.951Z,21.8
2017-08-17T06:57:17.697Z,21.8
2017-08-17T06:58:18.457Z,22.0
2017-08-17T06:59:19.260Z,22.0
2017-08-17T07:00:20.023Z,22.0
2017-08-17T07:01:20.866Z,22.0
2017-08-17T07:02:21.559Z,22.1
2017-08-17T07:03:22.599Z,22.2
2017-08-17T07:04:23.339Z,22.2
2017-08-17T07:05:24.083Z,22.1
2017-08-17T07:06:24.907Z,22.1
2017-08-17T07:07:25.702Z,22.0
2017-08-17T07:08:26.802Z,22.1
2017-08-17T07:09:27.549Z,22.2
2017-08-17T07:10:28.291Z,22.4
2017-08-17T07:11:29.108Z,22.4
2017-08-17T07:12:29.850Z,22.5
2017-08-17T07:13:31.011Z,22.5
2017-08-17T07:14:31.808Z,22.7
2017-08-17T07:15:32.625Z,22.8
2017-08-17T07:16:33.459Z,22.8
2017-08-17T07:17:34.200Z,22.9
2017-08-17T07:18:35.379Z,23.0
2017-08-17T07:19:36.119Z,23.1
2017-08-17T07:20:36.869Z,23.2
2017-08-17T07:21:37.621Z,23.2
2017-08-17T07:22:38.436Z,23.2
2017-08-17T07:23:39.178Z,23.2
2017-08-17T07:24:39.923Z,23.3
2017-08-17T07:25:40.741Z,23.3
2017-08-17T07:26:41.517Z,23.5
2017-08-17T07:27:42.750Z,23.6
2017-08-17T07:28:43.560Z,23.6
2017-08-17T07:29:44.318Z,23.5
2017-08-17T07:30:45.071Z,23.5
2017-08-17T07:31:45.887Z,23.3
2017-08-17T07:32:46.943Z,23.2
2017-08-17T07:33:47.761Z,23.3
2017-08-17T07:34:48.510Z,23.4
2017-08-17T07:35:49.256Z,23.3
2017-08-17T07:36:50.000Z,23.3
2017-08-17T07:37:51.222Z,23.1
2017-08-17T07:38:52.037Z,23.2
2017-08-17T07:39:52.862Z,23.3
2017-08-17T07:40:53.684Z,23.3
2017-08-17T07:41:54.418Z,23.6
2017-08-17T07:42:55.573Z,23.7
2017-08-17T07:43:56.322Z,23.7
2017-08-17T07:44:57.064Z,23.9
2017-08-17T07:45:57.858Z,23.9
2017-08-17T07:46:58.610Z,23.6
2017-08-17T07:47:59.778Z,23.7
2017-08-17T07:49:00.590Z,23.5
2017-08-17T07:50:01.409Z,23.5
2017-08-17T07:51:02.169Z,23.2
2017-08-17T07:52:02.989Z,23.2
2017-08-17T07:53:04.160Z,23.2
2017-08-17T07:54:04.907Z,23.2
2017-08-17T07:55:05.674Z,23.2
2017-08-17T07:56:06.463Z,23.3
2017-08-17T07:57:07.205Z,23.2
2017-08-17T07:58:08.472Z,23.4
2017-08-17T07:59:09.323Z,23.5
2017-08-17T08:00:10.142Z,23.8
2017-08-17T08:01:10.889Z,23.9
2017-08-17T08:02:11.640Z,23.9
2017-08-17T08:03:12.808Z,24.1
2017-08-17T08:04:13.552Z,24.4
2017-08-17T08:05:14.300Z,24.7
2017-08-17T08:06:15.124Z,25.0
2017-08-17T08:07:15.877Z,24.5
2017-08-17T08:08:17.032Z,24.6
2017-08-17T08:09:17.838Z,24.4
2017-08-17T08:10:18.591Z,24.6
2017-08-17T08:11:19.389Z,25.2
2017-08-17T08:12:20.134Z,25.4
2017-08-17T08:13:21.289Z,25.7
2017-08-17T08:14:22.130Z,25.8
2017-08-17T08:15:22.923Z,26.0
2017-08-17T08:16:23.768Z,25.9
2017-08-17T08:17:24.510Z,25.9
2017-08-17T08:18:25.690Z,26.1
2017-08-17T08:19:26.431Z,26.1
2017-08-17T08:20:27.176Z,26.1
2017-08-17T08:21:27.919Z,25.7
2017-08-17T08:22:28.665Z,25.6
2017-08-17T08:23:29.453Z,25.8
2017-08-17T08:24:30.237Z,26.4
2017-08-17T08:25:30.988Z,26.0
2017-08-17T08:26:32.141Z,26.2
2017-08-17T08:27:32.965Z,26.3
2017-08-17T08:28:33.704Z,26.7
2017-08-17T08:29:34.521Z,27.0
2017-08-17T08:30:35.341Z,27.0
2017-08-17T08:31:36.491Z,26.7
2017-08-17T08:32:37.236Z,26.7
2017-08-17T08:33:38.051Z,27.1
2017-08-17T08:34:38.808Z,27.4
2017-08-17T08:35:39.590Z,27.7
2017-08-17T08:36:40.687Z,27.9
2017-08-17T08:37:41.435Z,28.0
2017-08-17T08:38:42.181Z,28.2
2017-08-17T08:39:42.999Z,28.3
2017-08-17T08:40:43.740Z,28.0
2017-08-17T08:41:44.735Z,27.9
2017-08-17T08:42:45.570Z,27.8
2017-08-17T08:43:46.313Z,27.8
2017-08-17T08:44:47.062Z,27.6
2017-08-17T08:45:47.881Z,27.4
2017-08-17T08:46:49.070Z,27.4
2017-08-17T08:47:49.831Z,27.0
2017-08-17T08:48:50.625Z,27.1
2017-08-17T08:49:51.410Z,26.9
2017-08-17T08:50:52.158Z,27.0
2017-08-17T08:51:53.205Z,27.2
2017-08-17T08:52:54.066Z,27.3
2017-08-17T08:53:54.841Z,27.4
2017-08-17T08:54:55.584Z,27.4
2017-08-17T08:55:56.413Z,27.6
2017-08-17T08:56:57.550Z,27.8
2017-08-17T08:57:58.309Z,27.8
2017-08-17T08:58:59.089Z,27.6
2017-08-17T08:59:59.834Z,27.5
2017-08-17T09:01:00.585Z,27.4
2017-08-17T09:02:01.827Z,27.5
2017-08-17T09:03:02.585Z,27.2
2017-08-17T09:04:03.411Z,27.1
2017-08-17T09:05:04.220Z,27.1
2017-08-17T09:06:04.959Z,27.0
2017-08-17T09:07:06.110Z,26.8
2017-08-17T09:08:06.880Z,26.9
2017-08-17T09:09:07.660Z,26.9
2017-08-17T09:10:08.410Z,27.2
2017-08-17T09:11:09.160Z,27.3
2017-08-17T09:12:10.208Z,27.2
2017-08-17T09:13:10.976Z,27.0
2017-08-17T09:14:11.790Z,26.9
2017-08-17T09:15:12.605Z,26.5
2017-08-17T09:16:13.420Z,26.7
2017-08-17T09:17:14.470Z,26.9
2017-08-17T09:18:15.221Z,26.9
2017-08-17T09:19:15.971Z,26.8
2017-08-17T09:20:16.798Z,27.0
2017-08-17T09:21:17.551Z,26.7
2017-08-17T09:22:18.780Z,26.8
2017-08-17T09:23:19.530Z,26.5
2017-08-17T09:24:20.271Z,26.6
2017-08-17T09:25:21.015Z,26.7
2017-08-17T09:26:21.762Z,26.5
2017-08-17T09:27:22.910Z,26.3
2017-08-17T09:28:23.659Z,26.4
2017-08-17T09:29:24.420Z,26.4
2017-08-17T09:30:25.162Z,26.1
2017-08-17T09:31:25.988Z,26.0
2017-08-17T09:32:27.099Z,25.7
2017-08-17T09:33:27.841Z,25.7
2017-08-17T09:34:28.593Z,25.6
2017-08-17T09:35:29.334Z,25.9
2017-08-17T09:36:30.175Z,26.1
2017-08-17T09:37:31.312Z,26.4
2017-08-17T09:38:32.111Z,26.4
2017-08-17T09:39:32.950Z,26.6
2017-08-17T09:40:33.693Z,26.5
2017-08-17T09:41:34.440Z,26.5
2017-08-17T09:42:35.597Z,26.4
2017-08-17T09:43:36.410Z,26.1
2017-08-17T09:44:37.142Z,25.7
2017-08-17T09:45:37.989Z,25.6
2017-08-17T09:46:38.811Z,25.3
2017-08-17T09:47:39.970Z,25.3
2017-08-17T09:48:40.804Z,25.3
2017-08-17T09:49:41.607Z,25.5
2017-08-17T09:50:42.360Z,25.7
2017-08-17T09:51:43.192Z,25.6
2017-08-17T09:52:44.295Z,25.4
2017-08-17T09:53:45.110Z,25.3
2017-08-17T09:54:45.930Z,25.4
2017-08-17T09:55:46.671Z,25.3
2017-08-17T09:56:47.426Z,24.9
2017-08-17T09:57:48.528Z,25.2
2017-08-17T09:58:49.269Z,25.1
2017-08-17T09:59:50.026Z,25.2
2017-08-17T10:00:50.849Z,25.2
2017-08-17T10:01:51.599Z,25.0
2017-08-17T10:02:52.597Z,25.2
2017-08-17T10:03:53.341Z,25.2
2017-08-17T10:04:54.151Z,25.3
2017-08-17T10:05:54.907Z,25.3
2017-08-17T10:06:55.745Z,25.3
2017-08-17T10:07:56.798Z,25.3
2017-08-17T10:08:57.544Z,25.2
2017-08-17T10:09:58.382Z,25.2
2017-08-17T10:10:59.137Z,25.4
2017-08-17T10:11:59.954Z,25.4
2017-08-17T10:13:01.099Z,25.3
2017-08-17T10:14:01.836Z,25.5
2017-08-17T10:15:02.594Z,25.5
2017-08-17T10:16:03.418Z,25.5
2017-08-17T10:17:04.169Z,25.7
2017-08-17T10:18:05.321Z,26.0
2017-08-17T10:19:06.160Z,25.8
2017-08-17T10:20:06.913Z,25.5
2017-08-17T10:21:07.661Z,25.4
2017-08-17T10:22:08.416Z,25.5
2017-08-17T10:23:09.171Z,25.7
2017-08-17T10:24:10.335Z,25.9
2017-08-17T10:25:11.180Z,26.2
2017-08-17T10:26:11.929Z,26.2
2017-08-17T10:27:12.748Z,25.9
2017-08-17T10:28:13.557Z,25.9
2017-08-17T10:29:14.702Z,25.8
2017-08-17T10:30:15.519Z,25.7
2017-08-17T10:31:16.271Z,26.0
2017-08-17T10:32:17.091Z,26.2
2017-08-17T10:33:17.841Z,26.3
2017-08-17T10:34:18.582Z,26.4
2017-08-17T10:35:19.347Z,26.6
2017-08-17T10:36:20.172Z,26.7
2017-08-17T10:37:20.990Z,27.0
2017-08-17T10:38:21.819Z,26.4
2017-08-17T10:39:22.812Z,26.5
2017-08-17T10:40:23.548Z,26.8
2017-08-17T10:41:24.291Z,26.9
2017-08-17T10:42:25.109Z,26.7
2017-08-17T10:43:25.932Z,26.7
2017-08-17T10:44:26.680Z,26.5
2017-08-17T10:45:27.507Z,26.7
2017-08-17T10:46:28.332Z,26.8
2017-08-17T10:47:29.419Z,26.8
2017-08-17T10:48:30.162Z,27.0
2017-08-17T10:49:30.913Z,26.7
2017-08-17T10:50:31.717Z,26.1
2017-08-17T10:51:32.475Z,26.1
2017-08-17T10:52:33.615Z,26.1
2017-08-17T10:53:34.462Z,26.1
2017-08-17T10:54:35.291Z,26.1
2017-08-17T10:55:36.091Z,26.0
2017-08-17T10:56:36.836Z,25.7
2017-08-17T10:57:37.931Z,25.6
2017-08-17T10:58:38.678Z,25.7
2017-08-17T10:59:39.504Z,25.7
2017-08-17T11:00:40.249Z,25.7
2017-08-17T11:01:40.998Z,25.8
2017-08-17T11:02:42.037Z,26.0
2017-08-17T11:03:42.872Z,26.2
2017-08-17T11:04:43.691Z,26.2
2017-08-17T11:05:44.447Z,26.3
2017-08-17T11:06:45.200Z,26.2
2017-08-17T11:07:46.249Z,25.8
2017-08-17T11:08:46.992Z,25.8
2017-08-17T11:09:47.732Z,25.8
2017-08-17T11:10:48.561Z,25.9
2017-08-17T11:11:49.381Z,26.1
2017-08-17T11:12:50.454Z,26.1
2017-08-17T11:13:51.268Z,26.2
2017-08-17T11:14:52.019Z,26.3
2017-08-17T11:15:52.854Z,26.4
2017-08-17T11:16:53.677Z,26.5
2017-08-17T11:17:54.716Z,26.4
2017-08-17T11:18:55.456Z,25.9
2017-08-17T11:19:56.176Z,26.1
2017-08-17T11:20:56.990Z,26.3
2017-08-17T11:21:57.750Z,26.5
2017-08-17T11:22:58.496Z,26.4
2017-08-17T11:23:59.245Z,26.5
2017-08-17T11:25:00.075Z,26.4
2017-08-17T11:26:01.071Z,26.5
2017-08-17T11:27:01.813Z,26.6
2017-08-17T11:28:02.622Z,26.5
2017-08-17T11:29:03.443Z,26.2
2017-08-17T11:30:04.257Z,26.4
2017-08-17T11:31:05.326Z,26.4
2017-08-17T11:32:06.074Z,26.4
2017-08-17T11:33:06.830Z,26.4
2017-08-17T11:34:07.581Z,26.4
2017-08-17T11:35:08.328Z,26.4
2017-08-17T11:36:09.545Z,26.5
2017-08-17T11:37:10.291Z,26.4
2017-08-17T11:38:11.091Z,26.5
2017-08-17T11:39:11.967Z,26.4
2017-08-17T11:40:12.760Z,26.4
2017-08-17T11:41:13.886Z,26.5
2017-08-17T11:42:14.711Z,26.4
2017-08-17T11:43:16.516Z,26.4
2017-08-17T11:44:17.532Z,26.4
2017-08-17T11:45:18.360Z,26.5
2017-08-17T11:46:19.540Z,26.4
2017-08-17T11:47:20.351Z,26.3
2017-08-17T11:48:21.159Z,26.4
2017-08-17T11:49:21.911Z,26.1
2017-08-17T11:50:22.721Z,25.9
2017-08-17T11:51:23.866Z,25.8
2017-08-17T11:52:24.701Z,25.7
2017-08-17T11:53:25.520Z,25.7
2017-08-17T11:54:26.271Z,25.7
2017-08-17T11:55:27.010Z,25.8
2017-08-17T11:56:27.949Z,25.9
2017-08-17T11:57:28.700Z,25.9
2017-08-17T11:58:29.460Z,25.9
2017-08-17T11:59:30.205Z,25.6
2017-08-17T12:00:30.948Z,25.8
2017-08-17T12:01:32.002Z,25.3
2017-08-17T12:02:32.818Z,25.4
2017-08-17T12:03:33.519Z,25.5
2017-08-17T12:04:34.260Z,25.3
2017-08-17T12:05:35.018Z,25.5
2017-08-17T12:06:35.829Z,25.7
2017-08-17T12:07:36.582Z,25.7
2017-08-17T12:08:37.354Z,25.7
2017-08-17T12:09:38.161Z,25.8
2017-08-17T12:10:38.947Z,25.8
2017-08-17T12:11:40.090Z,25.9
2017-08-17T12:12:40.842Z,25.9
2017-08-17T12:13:41.669Z,26.1
2017-08-17T12:14:42.424Z,26.0
2017-08-17T12:15:43.163Z,26.1
2017-08-17T12:16:44.482Z,26.0
2017-08-17T12:17:45.237Z,26.2
2017-08-17T12:18:46.090Z,26.2
2017-08-17T12:19:46.918Z,26.4
2017-08-17T12:20:47.690Z,26.4
2017-08-17T12:21:48.860Z,26.5
2017-08-17T12:22:49.673Z,26.6
2017-08-17T12:23:50.481Z,26.9
2017-08-17T12:24:51.302Z,26.9
2017-08-17T12:25:52.060Z,26.9
2017-08-17T12:26:53.109Z,27.1
2017-08-17T12:27:53.931Z,27.0
2017-08-17T12:28:54.768Z,27.1
2017-08-17T12:29:55.598Z,27.2
2017-08-17T12:30:56.404Z,27.1
2017-08-17T12:31:57.460Z,27.1
2017-08-17T12:32:58.250Z,27.1
2017-08-17T12:33:59.003Z,27.1
2017-08-17T12:34:59.751Z,27.0
2017-08-17T12:36:00.589Z,26.7
2017-08-17T12:37:01.684Z,26.9
2017-08-17T12:38:02.430Z,26.9
2017-08-17T12:39:03.241Z,26.9
2017-08-17T12:40:04.065Z,26.8
2017-08-17T12:41:04.902Z,26.4
2017-08-17T12:42:06.045Z,26.4
2017-08-17T12:43:06.872Z,26.6
2017-08-17T12:44:07.657Z,26.4
2017-08-17T12:45:08.408Z,26.6
2017-08-17T12:46:09.169Z,26.7
2017-08-17T12:47:10.329Z,26.5
2017-08-17T12:48:11.145Z,26.7
2017-08-17T12:49:11.906Z,26.6
2017-08-17T12:50:12.699Z,26.7
2017-08-17T12:51:13.454Z,26.9
2017-08-17T12:52:14.288Z,27.1
2017-08-17T12:53:15.034Z,27.3
2017-08-17T12:54:15.773Z,27.4
2017-08-17T12:55:16.526Z,27.5
2017-08-17T12:56:17.279Z,27.5
2017-08-17T12:57:18.019Z,27.4
2017-08-17T12:58:18.767Z,27.3
2017-08-17T12:59:19.805Z,27.1
2017-08-17T13:00:20.549Z,27.1
2017-08-17T13:01:21.300Z,27.3
2017-08-17T13:02:22.040Z,27.5
2017-08-17T13:03:22.791Z,27.4
2017-08-17T13:04:23.877Z,27.3
2017-08-17T13:05:24.712Z,27.3
2017-08-17T13:06:25.514Z,27.1
2017-08-17T13:07:26.346Z,26.9
2017-08-17T13:08:27.160Z,26.8
2017-08-17T13:09:28.209Z,26.8
2017-08-17T13:10:28.980Z,26.8
2017-08-17T13:11:29.731Z,26.5
2017-08-17T13:12:30.478Z,26.5
2017-08-17T13:13:31.229Z,26.6
2017-08-17T13:14:32.329Z,26.8
2017-08-17T13:15:33.074Z,26.4
2017-08-17T13:16:33.844Z,26.3
2017-08-17T13:17:34.662Z,26.4
2017-08-17T13:18:35.481Z,26.8
2017-08-17T13:19:36.633Z,26.9
2017-08-17T13:20:37.486Z,27.0
2017-08-17T13:21:38.289Z,27.0
2017-08-17T13:22:39.113Z,27.0
2017-08-17T13:23:39.865Z,27.1
2017-08-17T13:24:40.592Z,26.8
2017-08-17T13:25:41.632Z,27.0
2017-08-17T13:26:42.459Z,27.1
2017-08-17T13:27:43.215Z,27.1
2017-08-17T13:28:43.964Z,27.2
2017-08-17T13:29:44.776Z,27.4